createdAt,value
2023-04-25T00:01:22.825Z,8.27
2023-04-25T00:04:25.189Z,7.97
2023-04-25T00:07:27.421Z,8.23
2023-04-25T00:10:29.560Z,7.90
2023-04-25T00:13:31.556Z,7.73
2023-04-25T00:16:35.937Z,7.50
2023-04-25T00:19:38.908Z,8.45
2023-04-25T00:22:40.983Z,7.97
2023-04-25T00:25:43.167Z,7.07
2023-04-25T00:28:45.221Z,9.10
2023-04-25T00:31:47.308Z,6.88
2023-04-25T00:34:49.358Z,7.07
2023-04-25T00:37:51.577Z,7.30
2023-04-25T00:40:54.060Z,7.43
2023-04-25T00:43:56.590Z,7.70
2023-04-25T00:46:58.861Z,8.10
2023-04-25T00:50:01.037Z,7.20
2023-04-25T00:53:04.356Z,6.30
2023-04-25T00:56:07.056Z,6.22
2023-04-25T00:59:10.646Z,5.70
2023-04-25T01:02:13.396Z,5.70
2023-04-25T01:05:15.480Z,5.10
2023-04-25T01:08:17.693Z,5.43
2023-04-25T01:11:19.767Z,5.07
2023-04-25T01:14:21.891Z,5.18
2023-04-25T01:17:24.085Z,5.20
2023-04-25T01:20:27.424Z,4.53
2023-04-25T01:23:30.270Z,5.25
2023-04-25T01:26:32.628Z,5.55
2023-04-25T01:29:35.774Z,5.80
2023-04-25T01:32:40.524Z,5.40
2023-04-25T01:35:42.691Z,4.60
2023-04-25T01:38:45.120Z,5.20
2023-04-25T01:41:47.821Z,4.93
2023-04-25T01:44:50.079Z,4.95
2023-04-25T01:47:52.201Z,4.65
2023-04-25T01:50:54.266Z,4.77
2023-04-25T01:53:56.323Z,4.40
2023-04-25T01:56:59.150Z,5.03
2023-04-25T02:00:02.437Z,4.30
2023-04-25T02:03:16.486Z,5.03
2023-04-25T02:06:18.725Z,4.77
2023-04-25T02:09:22.942Z,6.82
2023-04-25T02:12:29.082Z,4.53
2023-04-25T02:15:50.161Z,5.00
2023-04-25T02:18:55.002Z,4.40
2023-04-25T02:21:58.161Z,4.07
2023-04-25T02:25:00.568Z,3.92
2023-04-25T02:28:02.648Z,5.00
2023-04-25T02:31:05.176Z,4.43
2023-04-25T02:34:07.229Z,4.18
2023-04-25T02:37:12.051Z,4.00
2023-04-25T02:40:14.210Z,4.63
2023-04-25T02:43:17.143Z,4.17
2023-04-25T02:46:32.300Z,4.38
2023-04-25T02:49:40.548Z,4.82
2023-04-25T02:52:42.647Z,4.30
2023-04-25T02:55:50.034Z,3.90
2023-04-25T02:58:52.107Z,4.18
2023-04-25T03:01:54.202Z,3.50
2023-04-25T03:04:56.330Z,3.80
2023-04-25T03:07:58.337Z,3.53
2023-04-25T03:11:00.538Z,3.53
2023-04-25T03:14:02.660Z,3.80
2023-04-25T03:17:04.714Z,3.95
2023-04-25T03:20:09.216Z,3.63
2023-04-25T03:23:11.317Z,4.00
2023-04-25T03:26:16.467Z,4.50
2023-04-25T03:29:18.776Z,3.93
2023-04-25T03:32:22.531Z,3.33
2023-04-25T03:35:26.017Z,4.43
2023-04-25T03:38:28.536Z,3.33
2023-04-25T03:41:30.911Z,3.60
2023-04-25T03:44:38.571Z,3.97
2023-04-25T03:47:40.617Z,3.90
2023-04-25T03:50:42.936Z,4.28
2023-04-25T03:53:45.364Z,4.40
2023-04-25T03:57:06.103Z,3.97
2023-04-25T04:00:11.956Z,3.25
2023-04-25T04:03:17.043Z,3.53
2023-04-25T04:06:21.790Z,4.00
2023-04-25T04:09:28.774Z,4.43
2023-04-25T04:12:32.510Z,3.47
2023-04-25T04:15:34.602Z,3.80
2023-04-25T04:18:36.866Z,3.73
2023-04-25T04:21:39.036Z,4.10
2023-04-25T04:24:41.253Z,3.80
2023-04-25T04:27:45.870Z,2.83
2023-04-25T04:31:12.000Z,3.20
2023-04-25T04:34:14.116Z,2.40
2023-04-25T04:37:16.594Z,2.42
2023-04-25T04:40:19.207Z,2.10
2023-04-25T04:43:29.858Z,2.53
2023-04-25T04:46:45.727Z,1.73
2023-04-25T04:50:01.639Z,2.13
2023-04-25T04:53:22.170Z,2.50
2023-04-25T04:56:33.145Z,2.00
2023-04-25T04:59:55.513Z,2.63
2023-04-25T05:03:17.689Z,2.28
2023-04-25T05:06:37.861Z,2.15
2023-04-25T05:09:59.809Z,2.60
2023-04-25T05:13:17.918Z,2.80
2023-04-25T05:16:38.534Z,3.30
2023-04-25T05:19:59.622Z,3.03
2023-04-25T05:23:20.130Z,3.17
2023-04-25T05:26:32.134Z,2.40
2023-04-25T05:29:48.182Z,2.60
2023-04-25T05:32:59.960Z,3.67
2023-04-25T05:36:03.040Z,3.27
2023-04-25T05:39:05.782Z,3.90
2023-04-25T05:42:40.796Z,4.05
2023-04-25T05:46:11.280Z,4.13
2023-04-25T05:49:25.615Z,4.40
2023-04-25T05:53:00.309Z,4.93
2023-04-25T05:56:14.588Z,4.20
2023-04-25T05:59:17.129Z,4.13
2023-04-25T06:02:21.960Z,3.90
2023-04-25T06:05:26.389Z,4.90
2023-04-25T06:08:28.601Z,6.55
2023-04-25T06:11:30.998Z,4.82
2023-04-25T06:14:33.159Z,3.80
2023-04-25T06:17:35.625Z,4.28
2023-04-25T06:20:38.185Z,3.63
2023-04-25T06:23:40.419Z,5.10
2023-04-25T06:26:44.755Z,4.23
2023-04-25T06:29:47.611Z,4.22
2023-04-25T06:32:50.361Z,4.32
2023-04-25T06:35:52.696Z,4.32
2023-04-25T06:38:59.635Z,4.67
2023-04-25T06:42:02.151Z,3.72
2023-04-25T06:45:26.262Z,3.70
2023-04-25T06:48:30.082Z,3.87
2023-04-25T06:51:33.187Z,4.10
2023-04-25T06:54:35.691Z,3.30
2023-04-25T06:57:50.355Z,3.33
2023-04-25T07:01:13.020Z,3.80
2023-04-25T07:04:15.987Z,3.60
2023-04-25T07:07:24.704Z,4.65
2023-04-25T07:10:31.506Z,4.13
2023-04-25T07:13:33.634Z,4.17
2023-04-25T07:16:36.666Z,4.43
2023-04-25T07:19:41.010Z,3.80
2023-04-25T07:22:44.330Z,3.70
2023-04-25T07:25:46.573Z,4.10
2023-04-25T07:28:52.614Z,4.75
2023-04-25T07:31:55.217Z,4.45
2023-04-25T07:34:57.987Z,4.43
2023-04-25T07:38:00.337Z,3.87
2023-04-25T07:41:02.522Z,4.15
2023-04-25T07:44:05.053Z,4.13
2023-04-25T07:47:08.880Z,4.05
2023-04-25T07:50:12.091Z,4.17
2023-04-25T07:53:14.358Z,4.35
2023-04-25T07:56:23.262Z,3.42
2023-04-25T07:59:30.033Z,3.73
2023-04-25T08:02:34.278Z,3.95
2023-04-25T08:05:36.516Z,4.20
2023-04-25T08:08:42.078Z,3.47
2023-04-25T08:11:47.136Z,3.60
2023-04-25T08:14:52.253Z,4.75
2023-04-25T08:17:54.569Z,4.40
2023-04-25T08:20:56.944Z,4.00
2023-04-25T08:23:59.565Z,4.03
2023-04-25T08:27:05.347Z,4.35
2023-04-25T08:30:09.509Z,3.97
2023-04-25T08:33:12.906Z,3.38
2023-04-25T08:36:39.702Z,3.92
2023-04-25T08:39:57.395Z,3.13
2023-04-25T08:43:20.623Z,3.42
2023-04-25T08:46:24.941Z,3.80
2023-04-25T08:49:47.730Z,3.60
2023-04-25T08:52:53.531Z,2.90
2023-04-25T08:55:56.556Z,2.87
2023-04-25T08:58:58.967Z,3.63
2023-04-25T09:02:02.435Z,2.13
2023-04-25T09:05:07.801Z,1.88
2023-04-25T09:08:10.087Z,2.30
2023-04-25T09:11:13.848Z,2.70
2023-04-25T09:14:21.649Z,2.15
2023-04-25T09:17:42.721Z,2.33
2023-04-25T09:21:00.634Z,1.90
2023-04-25T09:24:08.208Z,1.90
2023-04-25T09:27:11.942Z,1.80
2023-04-25T09:30:17.700Z,1.70
2023-04-25T09:34:10.662Z,1.83
2023-04-25T09:37:21.902Z,2.53
2023-04-25T09:40:46.264Z,3.40
2023-04-25T09:43:58.641Z,2.40
2023-04-25T09:47:05.292Z,1.73
2023-04-25T09:50:18.412Z,1.50
2023-04-25T09:53:24.213Z,1.40
2023-04-25T09:56:38.956Z,1.63
2023-04-25T09:59:53.402Z,2.00
2023-04-25T10:02:56.961Z,2.72
2023-04-25T10:06:23.598Z,1.77
2023-04-25T10:09:27.259Z,1.38
2023-04-25T10:12:29.720Z,0.95
2023-04-25T10:15:34.481Z,1.47
2023-04-25T10:18:38.999Z,1.25
2023-04-25T10:21:45.718Z,1.40
2023-04-25T10:24:48.960Z,1.70
2023-04-25T10:27:54.990Z,1.50
2023-04-25T10:31:01.549Z,0.90
2023-04-25T10:34:03.972Z,1.50
2023-04-25T10:37:06.416Z,1.67
2023-04-25T10:40:12.018Z,1.67
2023-04-25T10:43:32.205Z,2.47
2023-04-25T10:46:36.017Z,1.30
2023-04-25T10:49:44.404Z,1.48
2023-04-25T10:52:46.567Z,2.05
2023-04-25T10:55:52.857Z,1.40
2023-04-25T10:59:11.852Z,1.40
2023-04-25T11:02:14.950Z,1.10
2023-04-25T11:05:41.184Z,1.42
2023-04-25T11:08:51.271Z,1.13
2023-04-25T11:11:57.114Z,1.65
2023-04-25T11:14:59.929Z,1.27
2023-04-25T11:18:02.518Z,1.27
2023-04-25T11:21:05.000Z,1.25
2023-04-25T11:24:07.470Z,2.20
2023-04-25T11:27:10.091Z,1.60
2023-04-25T11:30:13.368Z,1.27
2023-04-25T11:33:15.744Z,1.20
2023-04-25T11:36:18.353Z,0.70
2023-04-25T11:39:21.273Z,1.23
2023-04-25T11:42:23.397Z,0.88
2023-04-25T11:45:25.513Z,1.25
2023-04-25T11:48:27.615Z,1.40
2023-04-25T11:51:29.761Z,1.60
2023-04-25T11:54:31.975Z,1.67
2023-04-25T11:57:34.391Z,1.10
2023-04-25T12:00:36.834Z,1.08
2023-04-25T12:03:46.843Z,1.40
2023-04-25T12:06:50.167Z,1.20
2023-04-25T12:09:53.264Z,1.95
2023-04-25T12:12:55.802Z,1.30
2023-04-25T12:15:58.219Z,1.23
2023-04-25T12:19:00.752Z,1.30
2023-04-25T12:22:06.684Z,1.65
2023-04-25T12:25:09.128Z,2.28
2023-04-25T12:28:28.699Z,1.30
2023-04-25T12:31:31.994Z,1.33
2023-04-25T12:34:36.825Z,1.07
2023-04-25T12:37:38.988Z,1.58
2023-04-25T12:40:41.100Z,1.48
2023-04-25T12:43:43.369Z,0.95
2023-04-25T12:46:46.266Z,1.05
2023-04-25T12:49:48.451Z,1.13
2023-04-25T12:52:50.785Z,0.90
2023-04-25T12:55:52.935Z,1.10
2023-04-25T12:58:55.008Z,0.90
2023-04-25T13:01:57.060Z,1.40
2023-04-25T13:04:59.044Z,1.20
2023-04-25T13:08:01.480Z,0.80
2023-04-25T13:11:04.824Z,0.98
2023-04-25T13:14:06.911Z,1.55
2023-04-25T13:17:08.981Z,1.45
2023-04-25T13:20:11.153Z,0.90
2023-04-25T13:23:13.378Z,1.33
2023-04-25T13:26:15.638Z,1.52
2023-04-25T13:29:17.694Z,1.20
2023-04-25T13:32:19.820Z,2.85
2023-04-25T13:35:21.908Z,2.20
2023-04-25T13:38:25.246Z,1.60
2023-04-25T13:41:27.410Z,1.50
2023-04-25T13:44:29.441Z,1.35
2023-04-25T13:47:32.146Z,1.75
2023-04-25T13:50:34.223Z,1.57
2023-04-25T13:53:36.333Z,1.73
2023-04-25T13:56:38.550Z,1.45
2023-04-25T13:59:41.778Z,1.55
2023-04-25T14:02:43.956Z,1.10
2023-04-25T14:05:46.065Z,0.90
2023-04-25T14:08:48.251Z,0.93
2023-04-25T14:11:50.487Z,1.40
2023-04-25T14:14:55.850Z,2.72
2023-04-25T14:17:58.186Z,1.60
2023-04-25T14:21:01.068Z,2.93
2023-04-25T14:24:03.268Z,1.00
2023-04-25T14:27:05.277Z,1.30
2023-04-25T14:30:08.077Z,1.58
2023-04-25T14:33:10.205Z,1.38
2023-04-25T14:36:12.403Z,1.00
2023-04-25T14:39:15.265Z,1.42
2023-04-25T14:42:17.301Z,1.33
2023-04-25T14:45:19.554Z,1.27
2023-04-25T14:48:21.697Z,1.60
2023-04-25T14:51:23.846Z,1.00
2023-04-25T14:54:26.715Z,2.20
2023-04-25T14:57:29.061Z,1.95
2023-04-25T15:00:32.828Z,1.42
2023-04-25T15:03:35.355Z,1.45
2023-04-25T15:06:37.741Z,1.07
2023-04-25T15:09:40.078Z,1.33
2023-04-25T15:12:42.585Z,1.35
2023-04-25T15:15:44.808Z,1.75
2023-04-25T15:18:47.136Z,1.83
2023-04-25T15:21:49.517Z,1.50
2023-04-25T15:24:51.907Z,1.80
2023-04-25T15:27:54.664Z,1.40
2023-04-25T15:30:56.915Z,1.65
2023-04-25T15:33:59.264Z,1.63
2023-04-25T15:37:01.387Z,1.57
2023-04-25T15:40:09.785Z,2.10
2023-04-25T15:43:16.063Z,1.50
2023-04-25T15:46:18.520Z,1.25
2023-04-25T15:49:21.937Z,1.40
2023-04-25T15:52:23.972Z,1.30
2023-04-25T15:55:27.095Z,1.17
2023-04-25T15:58:29.139Z,1.38
2023-04-25T16:01:31.560Z,1.50
2023-04-25T16:04:35.811Z,1.30
2023-04-25T16:07:38.237Z,1.03
2023-04-25T16:10:40.398Z,1.50
2023-04-25T16:13:42.446Z,2.10
2023-04-25T16:16:45.131Z,1.90
2023-04-25T16:19:47.172Z,1.80
2023-04-25T16:22:49.372Z,1.30
2023-04-25T16:25:51.399Z,1.20
2023-04-25T16:28:53.435Z,1.30
2023-04-25T16:31:55.950Z,1.67
2023-04-25T16:34:59.001Z,1.50
2023-04-25T16:38:01.213Z,1.60
2023-04-25T16:41:03.347Z,1.60
2023-04-25T16:44:07.053Z,2.05
2023-04-25T16:47:09.163Z,1.48
2023-04-25T16:50:11.420Z,1.65
2023-04-25T16:53:13.488Z,1.60
2023-04-25T16:56:15.525Z,1.50
2023-04-25T16:59:17.516Z,2.25
2023-04-25T17:02:20.519Z,1.58
2023-04-25T17:05:22.743Z,1.70
2023-04-25T17:08:24.947Z,1.60
2023-04-25T17:11:27.132Z,1.70
2023-04-25T17:14:29.245Z,1.83
2023-04-25T17:17:32.340Z,1.77
2023-04-25T17:20:34.662Z,1.80
2023-04-25T17:23:37.101Z,1.97
2023-04-25T17:26:39.323Z,2.47
2023-04-25T17:29:41.493Z,2.70
2023-04-25T17:32:43.573Z,2.30
2023-04-25T17:35:46.314Z,2.70
2023-04-25T17:38:48.530Z,1.80
2023-04-25T17:41:50.546Z,2.45
2023-04-25T17:44:54.825Z,2.45
2023-04-25T17:47:56.841Z,1.90
2023-04-25T17:50:59.004Z,2.03
2023-04-25T17:54:01.019Z,2.03
2023-04-25T17:57:03.060Z,2.20
2023-04-25T18:00:08.313Z,1.92
2023-04-25T18:03:17.493Z,1.70
2023-04-25T18:06:19.575Z,2.35
2023-04-25T18:09:23.796Z,3.03
2023-04-25T18:12:27.517Z,4.00
2023-04-25T18:15:30.213Z,3.42
2023-04-25T18:18:34.623Z,2.85
2023-04-25T18:21:37.169Z,2.00
2023-04-25T18:24:39.154Z,2.00
2023-04-25T18:27:41.711Z,7.10
2023-04-25T18:30:44.549Z,5.20
2023-04-25T18:33:46.602Z,5.47
2023-04-25T18:36:48.592Z,5.57
2023-04-25T18:39:50.764Z,4.85
2023-04-25T18:42:53.155Z,5.95
2023-04-25T18:45:55.226Z,8.97
2023-04-25T18:48:57.637Z,9.15
2023-04-25T18:51:59.760Z,7.97
2023-04-25T18:55:01.743Z,7.07
2023-04-25T18:58:03.839Z,7.22
2023-04-25T19:01:05.881Z,6.63
2023-04-25T19:04:09.755Z,5.78
2023-04-25T19:07:11.885Z,5.85
2023-04-25T19:10:13.941Z,6.35
2023-04-25T19:13:15.987Z,5.97
2023-04-25T19:16:18.508Z,5.32
2023-04-25T19:19:20.969Z,4.93
2023-04-25T19:22:23.116Z,4.87
2023-04-25T19:25:26.307Z,4.77
2023-04-25T19:28:29.966Z,5.00
2023-04-25T19:31:32.764Z,5.10
2023-04-25T19:34:36.177Z,5.90
2023-04-25T19:37:38.439Z,6.87
2023-04-25T19:40:40.548Z,7.63
2023-04-25T19:43:42.550Z,7.55
2023-04-25T19:46:46.791Z,8.03
2023-04-25T19:49:48.833Z,7.22
2023-04-25T19:52:52.128Z,6.00
2023-04-25T19:55:54.189Z,5.93
2023-04-25T19:58:58.457Z,5.17
2023-04-25T20:02:01.035Z,5.03
2023-04-25T20:05:07.138Z,5.50
2023-04-25T20:08:09.246Z,6.00
2023-04-25T20:11:12.188Z,5.40
2023-04-25T20:14:14.222Z,5.82
2023-04-25T20:17:16.415Z,5.90
2023-04-25T20:20:18.809Z,5.40
2023-04-25T20:23:21.914Z,6.15
2023-04-25T20:26:24.062Z,6.68
2023-04-25T20:29:26.618Z,6.65
2023-04-25T20:32:29.599Z,7.20
2023-04-25T20:35:32.190Z,7.15
2023-04-25T20:38:34.169Z,8.07
2023-04-25T20:41:37.700Z,8.27
2023-04-25T20:44:40.940Z,8.43
2023-04-25T20:47:44.545Z,8.65
2023-04-25T20:50:57.238Z,9.77
2023-04-25T20:54:00.178Z,10.23
2023-04-25T20:57:02.459Z,10.10
2023-04-25T21:00:13.978Z,10.50
2023-04-25T21:03:16.287Z,9.32
2023-04-25T21:06:18.607Z,9.90
2023-04-25T21:09:20.596Z,10.13
2023-04-25T21:12:22.657Z,11.32
2023-04-25T21:15:25.113Z,11.70
2023-04-25T21:18:27.771Z,12.83
2023-04-25T21:21:30.028Z,12.38
2023-04-25T21:24:33.276Z,12.02
2023-04-25T21:27:35.471Z,12.70
2023-04-25T21:30:37.522Z,12.30
2023-04-25T21:33:39.620Z,13.75
2023-04-25T21:36:41.622Z,14.05
2023-04-25T21:39:43.720Z,11.55
2023-04-25T21:42:47.010Z,11.98
2023-04-25T21:46:14.764Z,11.82
2023-04-25T21:49:11.546Z,11.80
2023-04-25T21:52:13.570Z,11.33
2023-04-25T21:55:16.608Z,12.10
2023-04-25T21:58:18.681Z,12.02
2023-04-25T22:01:20.765Z,13.13
2023-04-25T22:04:23.035Z,10.93
2023-04-25T22:07:25.280Z,9.18
2023-04-25T22:10:27.386Z,9.15
2023-04-25T22:13:29.435Z,9.02
2023-04-25T22:16:31.520Z,9.60
2023-04-25T22:19:33.527Z,8.93
2023-04-25T22:22:35.493Z,8.65
2023-04-25T22:25:37.565Z,8.70
2023-04-25T22:28:40.639Z,9.60
2023-04-25T22:31:42.902Z,10.50
2023-04-25T22:34:45.687Z,12.70
2023-04-25T22:37:47.685Z,11.40
2023-04-25T22:40:49.721Z,10.02
2023-04-25T22:43:52.939Z,8.43
2023-04-25T22:46:55.388Z,8.02
2023-04-25T22:49:58.053Z,8.90
2023-04-25T22:53:00.654Z,10.07
2023-04-25T22:56:03.065Z,9.95
2023-04-25T22:59:05.092Z,10.10
2023-04-25T23:02:07.509Z,10.18
2023-04-25T23:05:09.798Z,9.75
2023-04-25T23:08:12.100Z,8.77
2023-04-25T23:11:14.201Z,8.33
2023-04-25T23:14:16.348Z,8.77
2023-04-25T23:17:18.435Z,7.95
2023-04-25T23:20:21.124Z,7.72
2023-04-25T23:23:23.373Z,7.43
2023-04-25T23:26:25.625Z,7.60
2023-04-25T23:29:27.706Z,6.72
2023-04-25T23:32:29.846Z,6.83
2023-04-25T23:35:35.130Z,6.35
2023-04-25T23:38:37.962Z,6.93
2023-04-25T23:41:40.044Z,5.57
2023-04-25T23:44:42.927Z,5.80
2023-04-25T23:47:45.075Z,5.53
2023-04-25T23:50:47.198Z,6.90
2023-04-25T23:53:49.400Z,5.93
2023-04-25T23:56:51.486Z,6.43
2023-04-25T23:59:53.554Z,7.18
